Pulpca — PHMT — position and weather

sailwx.info

Track history (hours):
 
Tides and Currents Weather Stations Pressure Air Temp Water Temp Dewpoint Dewpoint Depression Visibility Wind Speed Wind Dir Waves Ship Positions

Pulpca

Last reported at 2016-Apr-30 16:15 UTC. Time now 2016-Apr-30 16:53 UTC.
Position N 59°26' E 022°22'.

Length 205 m; draft 6.7 m.

Type: Ship (hazmat cat A). MMSI: 245097000.

Date/timePositionNaut miles runAvg speedWind from/ knotsBaromVisibWave heightAir tempDewpointWater temp
2016-Apr-30 16:15N 59°26' E 022°22'1822.5
2016-Apr-30 15:28N 59°37' E 022°50'13 1.3
2016-Apr-30 05:33N 59°49' E 022°57'0 0.0
2016-Apr-30 04:33N 59°49' E 022°57'0 0.0
2016-Apr-30 03:23N 59°49' E 022°57'1 0.8
2016-Apr-30 02:30N 59°49' E 022°56'33118.3
2016-Apr-29 08:28N 55°48' E 015°51'1819.3
2016-Apr-29 07:33N 55°39' E 015°24'1919.2
2016-Apr-29 06:34N 55°29' E 014°55'1919.0
2016-Apr-29 05:34N 55°17' E 014°29'1919.1
2016-Apr-29 04:34N 55°02' E 014°08'1919.3
2016-Apr-29 03:34N 54°55' E 013°36'2119.4
2016-Apr-29 02:29N 54°48' E 013°02'1819.2
2016-Apr-29 01:33N 54°40' E 012°35'1918.8
2016-Apr-29 00:33N 54°27' E 012°12'1918.9
2016-Apr-28 23:33N 54°17' E 011°44'1919.3
2016-Apr-28 22:33N 54°08' E 011°15'3 0.2
2016-Apr-28 02:21N 54°07' E 011°10'1417.6
2016-Apr-28 01:33N 54°15' E 011°29'1817.8
2016-Apr-28 00:33N 54°24' E 011°55'1615.8
2016-Apr-27 23:33N 54°35' E 012°15'5317.4
2016-Apr-27 20:32N 54°59' E 013°36'1717.5
2016-Apr-27 19:33N 55°05' E 014°05'1817.7
2016-Apr-27 18:33N 55°18' E 014°25'1817.6
2016-Apr-27 17:33N 55°29' E 014°49'1818.1
2016-Apr-27 16:33N 55°39' E 015°16'35017.5
2016-Apr-26 20:33N 59°43' E 023°05'7 1.5
2016-Apr-26 15:31N 59°49' E 022°56'1919.9
2016-Apr-26 14:33N 59°35' E 023°24'4 0.7
2016-Apr-26 09:10N 59°34' E 023°31'1422.3
2016-Apr-26 08:33N 59°41' E 023°09'9 0.6
2016-Apr-25 16:10N 59°49' E 022°57'2 4.0
2016-Apr-25 15:33N 59°47' E 022°60'34020.0
2016-Apr-24 22:33N 55°41' E 015°39'2121.3
2016-Apr-24 21:33N 55°31' E 015°06'2121.1
2016-Apr-24 20:33N 55°19' E 014°35'2121.2
2016-Apr-24 19:33N 55°03' E 014°12'2121.3
2016-Apr-24 18:33N 54°55' E 013°38'2221.3
2016-Apr-24 17:30N 54°47' E 013°01'2420.2
2016-Apr-24 16:18N 54°36' E 012°24'1620.4
2016-Apr-24 15:32N 54°24' E 012°07'2020.8
2016-Apr-24 14:33N 54°14' E 011°37'17 1.3
2016-Apr-24 01:22N 54°07' E 011°11'1417.4
2016-Apr-24 00:33N 54°15' E 011°30'1717.3
2016-Apr-23 23:33N 54°24' E 011°56'1615.9
2016-Apr-23 22:33N 54°35' E 012°16'5217.5
2016-Apr-23 19:34N 54°58' E 013°37'1817.7
2016-Apr-23 18:33N 55°06' E 014°05'1818.1
2016-Apr-23 17:34N 55°19' E 014°27'1818.2
2016-Apr-23 16:33N 55°31' E 014°52'1918.6
2016-Apr-23 15:34N 55°40' E 015°20'34717.9
2016-Apr-22 20:12N 59°42' E 023°05'3 0.6
2016-Apr-22 15:33N 59°45' E 023°02'2322.0
2016-Apr-22 14:30N 59°31' E 023°38'4 0.8
2016-Apr-22 09:07N 59°33' E 023°30'1222.3
2016-Apr-22 08:33N 59°40' E 023°11'11 1.8
2016-Apr-22 02:33N 59°48' E 022°57'34918.4
2016-Apr-21 07:34N 55°37' E 015°23'1919.5
2016-Apr-21 06:33N 55°28' E 014°53'1919.2
2016-Apr-21 05:33N 55°16' E 014°27'1919.1
2016-Apr-21 04:34N 55°02' E 014°05'2019.6
2016-Apr-21 03:34N 54°55' E 013°33'2019.5
2016-Apr-21 02:33N 54°48' E 013°01'2719.2
2016-Apr-21 01:08N 54°34' E 012°20'1119.3
2016-Apr-21 00:33N 54°25' E 012°09'1919.3
2016-Apr-20 23:33N 54°15' E 011°41'2019.5
2016-Apr-20 22:33N 54°06' E 011°11'  
Track history (hours):
 
Tides and Currents Weather Stations Pressure Air Temp Water Temp Dewpoint Dewpoint Depression Visibility Wind Speed Wind Dir Waves Ship Positions

Pulpca

Last reported at 2016-Apr-30 16:15 UTC. Time now 2016-Apr-30 16:53 UTC.
Position N 59°26' E 022°22'.

Length 205 m; draft 6.7 m.

Type: Ship (hazmat cat A). MMSI: 245097000.

Date/timePositionNaut miles runAvg speedWind from/ knotsBaromVisibWave heightAir tempDewpointWater temp
2016-Apr-30 16:15N 59°26' E 022°22'1822.5
2016-Apr-30 15:28N 59°37' E 022°50'13 1.3
2016-Apr-30 05:33N 59°49' E 022°57'0 0.0
2016-Apr-30 04:33N 59°49' E 022°57'0 0.0
2016-Apr-30 03:23N 59°49' E 022°57'1 0.8
2016-Apr-30 02:30N 59°49' E 022°56'33118.3
2016-Apr-29 08:28N 55°48' E 015°51'1819.3
2016-Apr-29 07:33N 55°39' E 015°24'1919.2
2016-Apr-29 06:34N 55°29' E 014°55'1919.0
2016-Apr-29 05:34N 55°17' E 014°29'1919.1
2016-Apr-29 04:34N 55°02' E 014°08'1919.3
2016-Apr-29 03:34N 54°55' E 013°36'2119.4
2016-Apr-29 02:29N 54°48' E 013°02'1819.2
2016-Apr-29 01:33N 54°40' E 012°35'1918.8
2016-Apr-29 00:33N 54°27' E 012°12'1918.9
2016-Apr-28 23:33N 54°17' E 011°44'1919.3
2016-Apr-28 22:33N 54°08' E 011°15'3 0.2
2016-Apr-28 02:21N 54°07' E 011°10'1417.6
2016-Apr-28 01:33N 54°15' E 011°29'1817.8
2016-Apr-28 00:33N 54°24' E 011°55'1615.8
2016-Apr-27 23:33N 54°35' E 012°15'5317.4
2016-Apr-27 20:32N 54°59' E 013°36'1717.5
2016-Apr-27 19:33N 55°05' E 014°05'1817.7
2016-Apr-27 18:33N 55°18' E 014°25'1817.6
2016-Apr-27 17:33N 55°29' E 014°49'1818.1
2016-Apr-27 16:33N 55°39' E 015°16'35017.5
2016-Apr-26 20:33N 59°43' E 023°05'7 1.5
2016-Apr-26 15:31N 59°49' E 022°56'1919.9
2016-Apr-26 14:33N 59°35' E 023°24'4 0.7
2016-Apr-26 09:10N 59°34' E 023°31'1422.3
2016-Apr-26 08:33N 59°41' E 023°09'9 0.6
2016-Apr-25 16:10N 59°49' E 022°57'2 4.0
2016-Apr-25 15:33N 59°47' E 022°60'34020.0
2016-Apr-24 22:33N 55°41' E 015°39'2121.3
2016-Apr-24 21:33N 55°31' E 015°06'2121.1
2016-Apr-24 20:33N 55°19' E 014°35'2121.2
2016-Apr-24 19:33N 55°03' E 014°12'2121.3
2016-Apr-24 18:33N 54°55' E 013°38'2221.3
2016-Apr-24 17:30N 54°47' E 013°01'2420.2
2016-Apr-24 16:18N 54°36' E 012°24'1620.4
2016-Apr-24 15:32N 54°24' E 012°07'2020.8
2016-Apr-24 14:33N 54°14' E 011°37'17 1.3
2016-Apr-24 01:22N 54°07' E 011°11'1417.4
2016-Apr-24 00:33N 54°15' E 011°30'1717.3
2016-Apr-23 23:33N 54°24' E 011°56'1615.9
2016-Apr-23 22:33N 54°35' E 012°16'5217.5
2016-Apr-23 19:34N 54°58' E 013°37'1817.7
2016-Apr-23 18:33N 55°06' E 014°05'1818.1
2016-Apr-23 17:34N 55°19' E 014°27'1818.2
2016-Apr-23 16:33N 55°31' E 014°52'1918.6
2016-Apr-23 15:34N 55°40' E 015°20'34717.9
2016-Apr-22 20:12N 59°42' E 023°05'3 0.6
2016-Apr-22 15:33N 59°45' E 023°02'2322.0
2016-Apr-22 14:30N 59°31' E 023°38'4 0.8
2016-Apr-22 09:07N 59°33' E 023°30'1222.3
2016-Apr-22 08:33N 59°40' E 023°11'11 1.8
2016-Apr-22 02:33N 59°48' E 022°57'34918.4
2016-Apr-21 07:34N 55°37' E 015°23'1919.5
2016-Apr-21 06:33N 55°28' E 014°53'1919.2
2016-Apr-21 05:33N 55°16' E 014°27'1919.1
2016-Apr-21 04:34N 55°02' E 014°05'2019.6
2016-Apr-21 03:34N 54°55' E 013°33'2019.5
2016-Apr-21 02:33N 54°48' E 013°01'2719.2
2016-Apr-21 01:08N 54°34' E 012°20'1119.3
2016-Apr-21 00:33N 54°25' E 012°09'1919.3
2016-Apr-20 23:33N 54°15' E 011°41'2019.5
2016-Apr-20 22:33N 54°06' E 011°11'  

Dump ship's entire track history